createdAt,value
2019-02-07T00:00:48.052Z,59.57
2019-02-07T00:03:50.385Z,39.07
2019-02-07T00:06:54.664Z,40.00
2019-02-07T00:09:55.072Z,67.27
2019-02-07T00:12:57.461Z,37.97
2019-02-07T00:15:59.708Z,47.10
2019-02-07T00:19:02.004Z,39.80
2019-02-07T00:22:04.634Z,34.87
2019-02-07T00:25:07.612Z,42.43
2019-02-07T00:28:09.970Z,35.80
2019-02-07T00:31:12.650Z,46.77
2019-02-07T00:34:14.936Z,53.00
2019-02-07T00:37:17.272Z,67.17
2019-02-07T00:40:19.678Z,64.97
2019-02-07T00:43:21.996Z,44.23
2019-02-07T00:46:24.367Z,44.00
2019-02-07T00:49:26.708Z,46.37
2019-02-07T00:52:29.104Z,40.03
2019-02-07T00:55:31.375Z,46.90
2019-02-07T00:58:33.744Z,60.83
2019-02-07T01:01:36.109Z,32.27
2019-02-07T01:04:38.444Z,43.43
2019-02-07T01:07:40.832Z,41.17
2019-02-07T01:10:43.143Z,40.80
2019-02-07T01:13:45.538Z,43.03
2019-02-07T01:16:47.920Z,31.70
2019-02-07T01:19:50.218Z,32.30
2019-02-07T01:22:52.537Z,26.20
2019-02-07T01:25:54.828Z,31.87
2019-02-07T01:28:57.257Z,32.07
2019-02-07T01:31:59.661Z,43.10
2019-02-07T01:35:02.061Z,36.80
2019-02-07T01:38:04.547Z,35.53
2019-02-07T01:41:06.980Z,28.43
2019-02-07T01:44:09.399Z,31.07
2019-02-07T01:47:11.733Z,29.67
2019-02-07T01:51:16.853Z,23.63
2019-02-07T01:54:19.146Z,28.33
2019-02-07T01:57:21.433Z,29.23
2019-02-07T02:00:23.801Z,25.17
2019-02-07T02:03:26.107Z,23.00
2019-02-07T02:06:28.378Z,21.80
2019-02-07T02:09:30.800Z,26.73
2019-02-07T02:12:33.142Z,26.37
2019-02-07T02:15:35.455Z,30.73
2019-02-07T02:18:37.801Z,24.10
2019-02-07T02:21:40.114Z,25.53
2019-02-07T02:24:45.124Z,31.77
2019-02-07T02:27:44.835Z,30.87
2019-02-07T02:30:47.200Z,33.77
2019-02-07T02:33:49.510Z,25.93
2019-02-07T02:36:51.841Z,27.03
2019-02-07T02:39:54.211Z,45.93
2019-02-07T02:42:56.677Z,42.20
2019-02-07T02:45:59.019Z,35.03
2019-02-07T02:49:01.392Z,40.60
2019-02-07T02:52:03.880Z,41.00
2019-02-07T02:55:07.229Z,28.77
2019-02-07T02:58:09.514Z,28.40
2019-02-07T03:01:47.206Z,34.83
2019-02-07T03:04:57.998Z,28.83
2019-02-07T03:08:05.820Z,26.87
2019-02-07T03:11:12.778Z,29.67
2019-02-07T03:14:25.623Z,26.50
2019-02-07T03:17:48.531Z,25.80
2019-02-07T03:20:56.517Z,33.33
2019-02-07T03:24:18.291Z,29.50
2019-02-07T03:27:25.234Z,25.73
2019-02-07T03:30:35.126Z,26.63
2019-02-07T03:33:43.129Z,24.23
2019-02-07T03:37:08.898Z,34.40
2019-02-07T03:40:17.042Z,31.47
2019-02-07T03:43:25.012Z,32.37
2019-02-07T03:46:37.852Z,25.43
2019-02-07T03:49:49.662Z,25.23
2019-02-07T03:54:59.629Z,25.60
2019-02-07T03:58:07.608Z,27.93
2019-02-07T04:03:20.120Z,37.97
2019-02-07T04:06:33.621Z,26.97
2019-02-07T04:09:41.786Z,30.13
2019-02-07T04:13:03.439Z,32.00
2019-02-07T04:16:15.788Z,38.87
2019-02-07T04:19:56.904Z,39.17
2019-02-07T04:23:04.556Z,43.87
2019-02-07T04:26:12.268Z,33.07
2019-02-07T04:31:22.203Z,28.13
2019-02-07T04:36:34.599Z,46.63
2019-02-07T04:39:41.508Z,37.53
2019-02-07T04:42:51.233Z,61.67
2019-02-07T04:46:01.047Z,33.33
2019-02-07T04:49:08.249Z,29.70
2019-02-07T04:52:18.943Z,47.50
2019-02-07T04:55:27.753Z,42.17
2019-02-07T04:59:38.632Z,42.70
2019-02-07T05:02:46.603Z,35.10
2019-02-07T05:05:53.588Z,39.97
2019-02-07T05:09:02.390Z,39.67
2019-02-07T05:14:11.434Z,51.60
2019-02-07T05:17:19.392Z,38.20
2019-02-07T05:22:33.323Z,35.43
2019-02-07T05:25:41.202Z,38.50
2019-02-07T05:29:55.136Z,34.07
2019-02-07T05:35:05.306Z,40.83
2019-02-07T05:38:18.079Z,29.53
2019-02-07T05:41:26.097Z,30.77
2019-02-07T05:44:34.893Z,34.50
2019-02-07T05:47:44.680Z,30.83
2019-02-07T05:50:58.323Z,31.30
2019-02-07T05:54:06.477Z,31.90
2019-02-07T05:57:45.228Z,35.37
2019-02-07T06:02:55.061Z,33.27
2019-02-07T06:06:11.992Z,30.90
2019-02-07T06:09:34.783Z,29.03
2019-02-07T06:12:45.612Z,29.63
2019-02-07T06:15:56.858Z,27.53
2019-02-07T06:21:06.077Z,30.27
2019-02-07T06:24:13.922Z,32.40
2019-02-07T06:27:22.776Z,31.27
2019-02-07T06:30:46.732Z,29.40
2019-02-07T06:33:53.672Z,32.30
2019-02-07T06:37:07.332Z,29.43
2019-02-07T06:40:22.573Z,30.20
2019-02-07T06:43:29.445Z,29.03
2019-02-07T06:46:37.205Z,28.03
2019-02-07T06:49:50.886Z,29.07
2019-02-07T06:55:01.552Z,29.00
2019-02-07T06:58:13.453Z,27.93
2019-02-07T07:03:25.983Z,28.03
2019-02-07T07:06:35.788Z,39.67
2019-02-07T07:09:43.710Z,62.27
2019-02-07T07:12:53.411Z,37.53
2019-02-07T07:18:03.602Z,31.23
2019-02-07T07:21:11.471Z,27.50
2019-02-07T07:24:19.276Z,30.07
2019-02-07T07:27:27.285Z,40.10
2019-02-07T07:32:36.497Z,38.57
2019-02-07T07:35:47.099Z,27.10
2019-02-07T07:39:58.133Z,37.57
2019-02-07T07:45:07.159Z,31.17
2019-02-07T07:48:16.086Z,31.53
2019-02-07T07:51:24.054Z,40.03
2019-02-07T07:54:32.110Z,38.43
2019-02-07T07:57:38.988Z,36.97
2019-02-07T08:02:47.845Z,34.90
2019-02-07T08:06:04.773Z,30.73
2019-02-07T08:09:16.464Z,33.57
2019-02-07T08:12:26.240Z,33.17
2019-02-07T08:15:34.037Z,38.20
2019-02-07T08:18:47.107Z,38.70
2019-02-07T08:21:57.127Z,30.77
2019-02-07T08:27:06.011Z,38.93
2019-02-07T08:30:14.063Z,35.03
2019-02-07T08:33:21.668Z,35.87
2019-02-07T08:36:29.524Z,38.43
2019-02-07T08:39:43.239Z,40.17
2019-02-07T08:42:51.179Z,35.67
2019-02-07T08:45:59.066Z,41.33
2019-02-07T08:49:06.954Z,44.33
2019-02-07T08:52:14.954Z,36.60
2019-02-07T08:57:24.799Z,34.60
2019-02-07T09:00:34.495Z,39.43
2019-02-07T09:03:42.392Z,35.87
2019-02-07T09:06:50.223Z,37.43
2019-02-07T09:09:58.143Z,252.50
2019-02-07T09:14:12.067Z,98.83
2019-02-07T09:17:39.823Z,41.90
2019-02-07T09:20:53.639Z,34.63
2019-02-07T09:24:01.496Z,31.07
2019-02-07T09:27:09.465Z,32.03
2019-02-07T09:30:19.642Z,35.40
2019-02-07T09:33:27.627Z,28.53
2019-02-07T09:36:37.517Z,30.37
2019-02-07T09:39:52.251Z,30.27
2019-02-07T09:45:07.440Z,30.93
2019-02-07T09:48:21.410Z,26.83
2019-02-07T09:51:22.138Z,32.73
2019-02-07T09:55:33.921Z,36.60
2019-02-07T09:58:48.603Z,35.10
2019-02-07T10:01:56.575Z,31.83
2019-02-07T10:05:18.402Z,28.87
2019-02-07T10:08:25.290Z,29.00
2019-02-07T10:11:37.970Z,23.53
2019-02-07T10:16:50.747Z,25.17
2019-02-07T10:19:58.735Z,31.63
2019-02-07T10:23:15.984Z,26.27
2019-02-07T10:26:22.971Z,26.40
2019-02-07T10:29:30.632Z,27.87
2019-02-07T10:32:41.441Z,24.80
2019-02-07T10:36:51.514Z,27.17
2019-02-07T10:40:02.301Z,22.40
2019-02-07T10:43:10.683Z,24.93
2019-02-07T10:48:20.599Z,23.80
2019-02-07T10:51:31.338Z,28.33
2019-02-07T10:54:41.123Z,82.00
2019-02-07T10:59:54.473Z,62.03
2019-02-07T11:03:04.446Z,32.03
2019-02-07T11:06:19.066Z,35.10
2019-02-07T11:09:27.160Z,24.73
2019-02-07T11:12:34.066Z,25.23
2019-02-07T11:15:55.937Z,28.70
2019-02-07T11:19:06.852Z,26.83
2019-02-07T11:22:15.205Z,31.17
2019-02-07T11:25:25.147Z,26.97
2019-02-07T11:30:39.301Z,28.30
2019-02-07T11:33:50.101Z,23.63
2019-02-07T11:36:58.805Z,20.53
2019-02-07T11:40:13.685Z,32.23
2019-02-07T11:43:21.340Z,30.70
2019-02-07T11:48:35.378Z,28.00
2019-02-07T11:53:45.402Z,41.97
2019-02-07T11:58:58.015Z,32.60
2019-02-07T12:02:09.161Z,24.40
2019-02-07T12:05:13.932Z,29.83
2019-02-07T12:09:24.370Z,26.17
2019-02-07T12:13:34.235Z,32.90
2019-02-07T12:16:44.123Z,29.73
2019-02-07T12:19:56.801Z,27.80
2019-02-07T12:23:03.626Z,30.90
2019-02-07T12:26:15.592Z,26.90
2019-02-07T12:29:25.164Z,27.90
2019-02-07T12:32:32.892Z,31.00
2019-02-07T12:35:48.734Z,25.00
2019-02-07T12:38:57.456Z,21.13
2019-02-07T12:42:04.745Z,20.60
2019-02-07T12:45:14.164Z,20.90
2019-02-07T12:48:22.063Z,30.37
2019-02-07T12:51:43.730Z,18.87
2019-02-07T12:54:57.672Z,25.23
2019-02-07T12:58:11.335Z,20.63
2019-02-07T13:01:19.453Z,32.13
2019-02-07T13:06:28.495Z,43.10
2019-02-07T13:09:40.291Z,36.87
2019-02-07T13:13:51.099Z,51.03
2019-02-07T13:19:00.935Z,38.87
2019-02-07T13:22:08.969Z,49.83
2019-02-07T13:25:15.919Z,41.40
2019-02-07T13:28:26.733Z,56.27
2019-02-07T13:31:34.777Z,49.47
2019-02-07T13:36:44.866Z,40.50
2019-02-07T13:39:51.716Z,44.23
2019-02-07T13:43:00.473Z,50.70
2019-02-07T13:46:18.311Z,63.43
2019-02-07T13:49:27.002Z,48.10
2019-02-07T13:52:33.936Z,42.63
2019-02-07T13:55:41.669Z,41.07
2019-02-07T13:58:54.976Z,49.83
2019-02-07T14:02:06.949Z,52.10
2019-02-07T14:05:14.985Z,50.23
2019-02-07T14:08:23.687Z,42.33
2019-02-07T14:11:31.897Z,45.93
2019-02-07T14:14:45.659Z,56.33
2019-02-07T14:17:57.431Z,60.90
2019-02-07T14:21:05.289Z,57.90
2019-02-07T14:24:13.278Z,56.70
2019-02-07T14:27:23.059Z,57.37
2019-02-07T14:30:30.743Z,53.23
2019-02-07T14:33:38.763Z,61.77
2019-02-07T14:36:45.691Z,54.70
2019-02-07T14:41:55.994Z,46.53
2019-02-07T14:45:04.115Z,45.17
2019-02-07T14:48:06.590Z,50.00
2019-02-07T14:51:08.884Z,62.23
2019-02-07T14:54:11.213Z,57.93
2019-02-07T14:57:13.608Z,45.77
2019-02-07T15:00:18.948Z,63.57
2019-02-07T15:03:21.309Z,108.70
2019-02-07T15:06:23.659Z,59.50
2019-02-07T15:09:25.968Z,46.23
2019-02-07T15:12:28.328Z,52.57
2019-02-07T15:15:30.672Z,52.30
2019-02-07T15:18:33.080Z,43.83
2019-02-07T15:21:35.407Z,39.10
2019-02-07T15:24:37.819Z,44.23
2019-02-07T15:27:40.136Z,44.87
2019-02-07T15:30:42.399Z,37.93
2019-02-07T15:33:44.701Z,34.30
2019-02-07T15:36:48.502Z,36.03
2019-02-07T15:39:50.843Z,37.83
2019-02-07T15:42:53.221Z,32.30
2019-02-07T15:45:55.580Z,42.30
2019-02-07T15:48:57.883Z,64.33
2019-02-07T15:52:00.175Z,23.50
2019-02-07T15:55:02.625Z,14.30
2019-02-07T15:58:05.006Z,11.30
2019-02-07T16:01:12.959Z,8.83
2019-02-07T16:04:19.004Z,11.60
2019-02-07T16:07:21.349Z,12.00
2019-02-07T16:10:23.687Z,9.00
2019-02-07T16:13:26.146Z,8.47
2019-02-07T16:16:28.498Z,9.10
2019-02-07T16:19:31.146Z,6.30
2019-02-07T16:22:33.451Z,6.90
2019-02-07T16:25:35.786Z,7.93
2019-02-07T16:28:38.419Z,7.03
2019-02-07T16:31:40.747Z,7.63
2019-02-07T16:34:43.275Z,7.03
2019-02-07T16:37:45.692Z,194.93
2019-02-07T16:40:49.753Z,108.77
2019-02-07T16:43:52.112Z,12.63
2019-02-07T16:46:54.605Z,9.07
2019-02-07T16:49:57.129Z,6.53
2019-02-07T16:53:01.472Z,7.67
2019-02-07T16:56:01.959Z,5.57
2019-02-07T16:59:04.740Z,7.47
2019-02-07T17:02:07.878Z,8.00
2019-02-07T17:05:10.963Z,7.97
2019-02-07T17:08:13.516Z,8.47
2019-02-07T17:11:15.946Z,8.43
2019-02-07T17:14:18.655Z,5.73
2019-02-07T17:17:21.556Z,8.20
2019-02-07T17:20:26.179Z,6.90
2019-02-07T17:23:29.137Z,8.80
2019-02-07T17:26:32.010Z,6.87
2019-02-07T17:29:34.607Z,3.83
2019-02-07T17:32:37.182Z,3.43
2019-02-07T17:35:40.207Z,6.03
2019-02-07T17:38:42.871Z,2.97
2019-02-07T17:41:45.211Z,4.17
2019-02-07T17:44:47.711Z,3.53
2019-02-07T17:47:50.694Z,5.23
2019-02-07T17:50:53.239Z,5.70
2019-02-07T17:53:55.879Z,5.20
2019-02-07T17:56:58.578Z,6.80
2019-02-07T18:00:00.924Z,4.20
2019-02-07T18:03:03.990Z,9.73
2019-02-07T18:06:08.294Z,3.87
2019-02-07T18:09:10.932Z,4.63
2019-02-07T18:12:13.576Z,4.30
2019-02-07T18:15:16.587Z,4.23
2019-02-07T18:18:19.442Z,5.07
2019-02-07T18:21:22.015Z,3.03
2019-02-07T18:24:24.677Z,3.83
2019-02-07T18:27:27.988Z,4.03
2019-02-07T18:30:30.859Z,3.70
2019-02-07T18:33:34.059Z,2.60
2019-02-07T18:36:37.680Z,2.87
2019-02-07T18:39:41.210Z,5.67
2019-02-07T18:42:44.383Z,7.77
2019-02-07T18:45:47.987Z,3.77
2019-02-07T18:48:51.582Z,5.70
2019-02-07T18:51:55.213Z,4.80
2019-02-07T18:54:58.802Z,4.73
2019-02-07T18:58:02.762Z,5.40
2019-02-07T19:01:06.926Z,6.40
2019-02-07T19:04:10.516Z,4.43
2019-02-07T19:07:13.899Z,4.97
2019-02-07T19:10:19.187Z,6.47
2019-02-07T19:13:22.900Z,4.10
2019-02-07T19:16:26.513Z,3.37
2019-02-07T19:19:29.516Z,5.83
2019-02-07T19:22:32.760Z,6.30
2019-02-07T19:25:36.139Z,3.87
2019-02-07T19:28:39.951Z,5.10
2019-02-07T19:31:43.703Z,4.10
2019-02-07T19:34:47.623Z,6.63
2019-02-07T19:37:51.475Z,4.07
2019-02-07T19:40:54.929Z,4.87
2019-02-07T19:43:58.298Z,5.57
2019-02-07T19:47:01.912Z,4.80
2019-02-07T19:50:07.909Z,5.97
2019-02-07T19:53:12.616Z,5.13
2019-02-07T19:56:16.023Z,7.63
2019-02-07T19:59:19.591Z,5.50
2019-02-07T20:02:23.215Z,6.77
2019-02-07T20:05:26.687Z,7.50
2019-02-07T20:08:30.069Z,9.13
2019-02-07T20:11:34.960Z,7.77
2019-02-07T20:14:37.392Z,5.27
2019-02-07T20:17:41.199Z,6.03
2019-02-07T20:20:45.071Z,5.43
2019-02-07T20:23:48.743Z,8.53
2019-02-07T20:30:15.777Z,4.67
2019-02-07T20:33:19.378Z,6.83
2019-02-07T20:36:22.730Z,5.80
2019-02-07T20:39:27.155Z,5.77
2019-02-07T20:42:30.081Z,6.40
2019-02-07T20:45:33.511Z,7.07
2019-02-07T20:48:36.769Z,5.37
2019-02-07T20:51:39.976Z,6.40
2019-02-07T20:54:43.093Z,6.27
2019-02-07T20:57:46.373Z,6.60
2019-02-07T21:00:49.597Z,6.33
2019-02-07T21:03:53.345Z,4.83
2019-02-07T21:06:56.926Z,5.83
2019-02-07T21:10:00.481Z,5.20
2019-02-07T21:13:03.843Z,6.03
2019-02-07T21:16:06.891Z,4.50
2019-02-07T21:19:09.951Z,4.63
2019-02-07T21:22:12.633Z,7.57
2019-02-07T21:25:18.872Z,5.37
2019-02-07T21:28:21.577Z,6.60
2019-02-07T21:31:24.833Z,6.73
2019-02-07T21:34:27.494Z,5.50
2019-02-07T21:37:30.260Z,6.37
2019-02-07T21:40:33.112Z,7.00
2019-02-07T21:43:35.726Z,6.80
2019-02-07T21:46:38.087Z,5.23
2019-02-07T21:49:40.341Z,8.03
2019-02-07T21:52:42.625Z,8.30
2019-02-07T21:55:44.994Z,7.63
2019-02-07T21:58:47.271Z,7.77
2019-02-07T22:01:49.540Z,9.53
2019-02-07T22:04:51.796Z,6.30
2019-02-07T22:07:54.059Z,11.53
2019-02-07T22:10:56.352Z,9.07
2019-02-07T22:13:58.618Z,11.07
2019-02-07T22:17:00.918Z,11.43
2019-02-07T22:20:04.621Z,20.63
2019-02-07T22:23:06.972Z,16.67
2019-02-07T22:26:09.244Z,12.13
2019-02-07T22:29:11.548Z,10.10
2019-02-07T22:32:13.798Z,11.67
2019-02-07T22:35:16.156Z,12.00
2019-02-07T22:38:18.429Z,9.47
2019-02-07T22:41:20.877Z,10.47
2019-02-07T22:44:23.188Z,10.67
2019-02-07T22:47:25.553Z,9.93
2019-02-07T22:50:28.486Z,11.63
2019-02-07T22:53:30.858Z,8.90
2019-02-07T22:56:33.128Z,10.33
2019-02-07T22:59:35.445Z,10.67
2019-02-07T23:02:37.785Z,42.60
2019-02-07T23:05:40.056Z,135.43
2019-02-07T23:08:42.718Z,20.97
2019-02-07T23:11:45.030Z,7.23
2019-02-07T23:14:47.310Z,6.53
2019-02-07T23:17:49.687Z,5.13
2019-02-07T23:20:51.988Z,7.30
2019-02-07T23:23:54.270Z,5.80
2019-02-07T23:26:56.544Z,6.73
2019-02-07T23:29:58.848Z,5.20
2019-02-07T23:33:01.130Z,5.40
2019-02-07T23:36:04.087Z,4.17
2019-02-07T23:39:08.137Z,4.30
2019-02-07T23:42:10.435Z,4.53
2019-02-07T23:45:13.031Z,6.87
2019-02-07T23:48:15.328Z,6.50
2019-02-07T23:51:17.621Z,6.60
2019-02-07T23:54:19.919Z,7.50
2019-02-07T23:57:22.221Z,7.73
